Time;durP1;ratioP1;P1;durP2;ratioP2;P2;SDS_P1;SDS_P2;PMS_P1;PMS_P2;Temp;Humidity;BMP_temperature;BMP_pressure;BME280_temperature;BME280_humidity;BME280_pressure;Samples;Min_cycle;Max_cycle;Signal;HPM_P1;HPM_P2
2021/06/22 00:01:56;;;;;;;1.48;1.38;;;;;;;14.08;46.09;95176.88;5069617;28;20097;-64
2021/06/22 00:04:21;;;;;;;1.83;1.58;;;;;;;13.88;45.99;95169.72;5073504;28;20077;-64
2021/06/22 00:06:47;;;;;;;1.83;1.48;;;;;;;13.87;45.91;95165.34;5069420;28;20105;-64
2021/06/22 00:09:13;;;;;;;1.50;1.00;;;;;;;14.08;45.61;95158.13;5075182;28;20565;-64
2021/06/22 00:11:38;;;;;;;1.30;1.20;;;;;;;13.81;46.01;95160.88;5077638;28;20105;-64
2021/06/22 00:14:03;;;;;;;1.63;1.52;;;;;;;13.72;46.92;95156.75;5075937;28;20115;-64
2021/06/22 00:16:29;;;;;;;1.92;1.80;;;;;;;13.11;48.44;95154.97;5073367;28;20100;-64
2021/06/22 00:18:54;;;;;;;1.77;1.45;;;;;;;13.27;47.30;95152.91;5077580;28;20100;-64
2021/06/22 00:21:20;;;;;;;1.55;1.00;;;;;;;13.48;46.34;95159.06;5077851;28;20083;-64
2021/06/22 00:23:45;;;;;;;1.60;1.02;;;;;;;13.38;46.43;95157.63;5079144;28;20068;-64
2021/06/22 00:26:11;;;;;;;1.20;1.20;;;;;;;13.48;46.37;95164.41;5073524;28;20104;-64
2021/06/22 00:28:36;;;;;;;1.30;1.17;;;;;;;13.57;45.87;95184.56;5067370;28;20080;-64
2021/06/22 00:31:01;;;;;;;3.78;2.10;;;;;;;13.65;45.93;95184.34;5067891;28;20104;-64
2021/06/22 00:33:27;;;;;;;1.20;1.20;;;;;;;13.58;46.27;95180.84;5067887;28;20097;-64
2021/06/22 00:35:52;;;;;;;1.27;1.25;;;;;;;13.48;46.32;95173.25;5068598;28;20084;-64
2021/06/22 00:38:18;;;;;;;1.30;1.20;;;;;;;13.57;47.04;95179.22;5069222;28;20108;-64
2021/06/22 00:40:43;;;;;;;1.65;1.10;;;;;;;13.83;45.81;95189.03;5074100;28;20457;-64
2021/06/22 00:43:09;;;;;;;0.70;0.70;;;;;;;13.93;45.79;95187.81;5071053;28;20484;-63
2021/06/22 00:45:34;;;;;;;1.80;0.73;;;;;;;13.92;45.92;95192.34;5070382;28;20076;-64
2021/06/22 00:48:00;;;;;;;1.38;1.27;;;;;;;13.88;46.24;95177.75;5071355;28;20622;-64
2021/06/22 00:50:26;;;;;;;1.85;1.00;;;;;;;14.00;46.30;95177.09;5069444;28;20119;-64
2021/06/22 00:52:51;;;;;;;1.55;1.15;;;;;;;14.04;46.34;95183.69;5072711;28;20117;-63
2021/06/22 00:55:29;;;;;;;0.80;0.80;;;;;;;14.23;45.26;95181.13;5069676;28;20607;-64
2021/06/22 00:57:56;;;;;;;;;;;;;;;14.21;45.69;95181.34;5073597;28;20213;-64
2021/06/22 01:00:22;;;;;;;;;;;;;;;13.97;46.34;95178.31;5080054;28;19964;-64
2021/06/22 01:02:48;;;;;;;1.83;1.10;;;;;;;13.61;46.96;95172.44;5074133;28;20045;-64
2021/06/22 01:05:13;;;;;;;2.92;1.50;;;;;;;13.39;47.34;95163.78;5072812;28;20327;-64
2021/06/22 01:07:38;;;;;;;1.60;1.50;;;;;;;13.62;48.64;95158.00;5073144;28;20869;-64
2021/06/22 01:10:05;;;;;;;1.75;1.65;;;;;;;13.40;48.68;95152.09;5075395;28;20126;-64
2021/06/22 01:12:30;;;;;;;3.75;1.48;;;;;;;13.47;47.31;95152.06;5074580;28;20107;-64
2021/06/22 01:14:55;;;;;;;1.98;1.27;;;;;;;13.44;49.04;95147.97;5070930;28;20105;-63
2021/06/22 01:17:21;;;;;;;1.45;1.35;;;;;;;13.22;48.71;95148.19;5082275;28;20079;-64
2021/06/22 01:19:47;;;;;;;0.85;0.85;;;;;;;13.26;49.35;95145.94;5071017;28;20123;-64
2021/06/22 01:22:12;;;;;;;1.45;1.35;;;;;;;13.24;50.20;95142.63;5081810;28;20105;-63
2021/06/22 01:24:38;;;;;;;1.45;1.08;;;;;;;13.04;49.53;95135.44;5071933;28;20453;-64
2021/06/22 01:27:04;;;;;;;2.75;1.40;;;;;;;13.21;49.07;95132.34;5077352;28;20112;-64
2021/06/22 01:29:29;;;;;;;1.30;1.20;;;;;;;12.83;50.14;95147.94;5078958;28;20133;-64
2021/06/22 01:31:55;;;;;;;2.40;1.23;;;;;;;12.74;49.94;95149.16;5078947;28;20092;-64
2021/06/22 01:34:25;;;;;;;1.60;1.50;;;;;;;12.95;50.67;95150.00;5076166;28;20117;-64
2021/06/22 01:36:50;;;;;;;1.52;1.48;;;;;;;12.68;49.55;95142.75;5078125;28;20916;-64
2021/06/22 01:39:16;;;;;;;1.40;1.30;;;;;;;12.82;48.75;95138.28;5078500;28;20104;-64
2021/06/22 01:41:41;;;;;;;2.03;1.50;;;;;;;12.73;50.81;95136.81;5066416;28;20113;-64
2021/06/22 01:44:07;;;;;;;1.80;1.70;;;;;;;12.32;50.71;95123.41;5066393;28;20163;-64
2021/06/22 01:46:32;;;;;;;1.67;1.55;;;;;;;12.61;49.11;95134.75;5067329;28;20198;-64
2021/06/22 01:48:58;;;;;;;1.35;1.25;;;;;;;12.66;49.11;95148.34;5065797;28;20122;-64
2021/06/22 01:51:23;;;;;;;1.30;1.20;;;;;;;12.88;48.38;95149.97;5068137;28;20097;-64
2021/06/22 01:53:56;;;;;;;1.98;1.67;;;;;;;12.78;50.75;95148.53;5067273;28;20144;-64
2021/06/22 01:56:22;;;;;;;1.83;1.60;;;;;;;12.19;50.28;95150.88;5068325;28;20410;-64
2021/06/22 01:58:48;;;;;;;1.70;1.60;;;;;;;12.42;50.09;95147.84;5049867;28;20100;-64
2021/06/22 02:01:13;;;;;;;3.20;1.48;;;;;;;12.61;49.66;95140.09;5070718;28;20165;-64
2021/06/22 02:03:39;;;;;;;1.75;1.65;;;;;;;12.30;51.44;95157.47;5066936;28;20104;-64
2021/06/22 02:06:05;;;;;;;1.80;1.70;;;;;;;11.90;50.75;95163.44;5079040;28;20108;-64
2021/06/22 02:08:30;;;;;;;1.80;1.70;;;;;;;12.12;51.22;95164.19;5070499;28;20110;-64
2021/06/22 02:10:56;;;;;;;1.83;1.73;;;;;;;12.21;50.92;95161.34;5079373;28;20461;-64
2021/06/22 02:13:21;;;;;;;1.60;1.50;;;;;;;12.57;50.34;95159.41;5071292;28;20097;-64
2021/06/22 02:15:47;;;;;;;2.05;1.60;;;;;;;12.62;49.85;95168.44;5074999;28;20087;-64
2021/06/22 02:18:13;;;;;;;2.75;1.80;;;;;;;12.64;50.17;95160.22;5070054;28;20108;-64
2021/06/22 02:20:39;;;;;;;1.70;1.60;;;;;;;12.47;50.38;95157.09;5081764;28;20107;-64
2021/06/22 02:23:04;;;;;;;1.92;1.83;;;;;;;12.37;50.15;95157.47;5072966;28;20696;-64
2021/06/22 02:25:30;;;;;;;1.60;1.60;;;;;;;12.72;48.92;95149.34;5076577;28;20103;-64
2021/06/22 02:28:02;;;;;;;1.60;1.50;;;;;;;12.81;48.91;95155.31;5072639;28;20080;-64
2021/06/22 02:30:27;;;;;;;1.80;1.70;;;;;;;12.20;50.07;95165.03;5073541;28;20115;-64
2021/06/22 02:32:53;;;;;;;2.15;1.90;;;;;;;11.44;51.99;95172.78;5084274;28;20092;-64
2021/06/22 02:35:18;;;;;;;1.63;1.52;;;;;;;12.35;50.10;95170.22;5066120;28;20097;-64
2021/06/22 02:37:44;;;;;;;2.88;1.65;;;;;;;12.65;49.65;95162.69;5066540;28;20253;-64
2021/06/22 02:40:10;;;;;;;1.80;1.70;;;;;;;12.97;48.50;95159.47;5072227;28;20092;-63
2021/06/22 02:42:36;;;;;;;2.05;1.80;;;;;;;13.05;48.14;95153.94;5067032;28;20205;-64
2021/06/22 02:45:01;;;;;;;2.40;1.60;;;;;;;13.12;48.59;95148.59;5067412;28;20494;-64
2021/06/22 02:47:27;;;;;;;1.98;1.58;;;;;;;13.27;48.15;95150.25;5067626;28;20482;-64
2021/06/22 02:49:52;;;;;;;2.42;1.67;;;;;;;13.07;47.83;95156.41;5067546;28;20609;-64
2021/06/22 02:52:18;;;;;;;1.55;1.48;;;;;;;13.27;48.29;95158.25;5068322;28;20100;-64
2021/06/22 02:54:43;;;;;;;1.60;1.50;;;;;;;13.21;48.66;95156.41;5069033;28;20150;-64
2021/06/22 02:57:09;;;;;;;1.75;1.65;;;;;;;12.98;48.65;95160.28;5068102;28;20073;-64
2021/06/22 02:59:35;;;;;;;1.50;1.50;;;;;;;12.67;49.31;95155.31;5070011;28;20120;-64
2021/06/22 03:02:01;;;;;;;1.70;1.60;;;;;;;12.26;50.25;95161.56;5070487;28;20120;-63
2021/06/22 03:04:27;;;;;;;1.65;1.55;;;;;;;12.39;50.74;95161.63;5081822;28;20159;-63
2021/06/22 03:06:52;;;;;;;2.33;1.70;;;;;;;12.49;50.26;95163.91;5077729;28;20173;-64
2021/06/22 03:09:17;;;;;;;1.90;1.80;;;;;;;12.66;49.27;95166.19;5076366;28;20084;-63
2021/06/22 03:11:43;;;;;;;1.75;1.65;;;;;;;12.90;48.70;95169.31;5079373;28;20512;-64
2021/06/22 03:14:09;;;;;;;1.52;1.45;;;;;;;13.03;48.95;95171.22;5077290;28;20104;-63
2021/06/22 03:16:34;;;;;;;2.17;1.80;;;;;;;13.12;48.29;95174.50;5074597;28;20171;-64
2021/06/22 03:19:00;;;;;;;2.88;1.63;;;;;;;13.15;49.33;95174.91;5078311;28;20585;-64
2021/06/22 03:21:25;;;;;;;1.42;1.40;;;;;;;13.20;48.94;95173.47;5080536;28;20537;-64
2021/06/22 03:23:51;;;;;;;1.67;1.50;;;;;;;13.25;48.43;95171.81;5080421;28;20069;-64
2021/06/22 03:26:16;;;;;;;2.58;1.73;;;;;;;13.48;47.46;95167.91;5074759;28;20104;-64
2021/06/22 03:28:42;;;;;;;1.63;1.52;;;;;;;13.57;47.23;95163.97;5079838;28;20076;-64
2021/06/22 03:31:07;;;;;;;1.70;1.60;;;;;;;13.25;48.00;95160.31;5086599;28;20894;-64
2021/06/22 03:33:33;;;;;;;1.70;1.60;;;;;;;13.32;48.42;95161.13;5080041;28;20134;-64
2021/06/22 03:35:58;;;;;;;1.92;1.73;;;;;;;13.02;48.29;95166.91;5069660;28;20092;-64
2021/06/22 03:38:24;;;;;;;3.40;1.80;;;;;;;12.87;48.72;95167.88;5069248;28;20523;-64
2021/06/22 03:40:49;;;;;;;1.80;1.70;;;;;;;12.90;48.39;95167.47;5075069;28;20601;-64
2021/06/22 03:43:14;;;;;;;1.73;1.63;;;;;;;13.03;48.25;95173.88;5070683;28;20117;-64
2021/06/22 03:45:40;;;;;;;1.58;1.48;;;;;;;13.10;48.45;95172.03;5070078;28;20539;-64
2021/06/22 03:48:07;;;;;;;2.00;1.90;;;;;;;12.99;49.10;95181.47;5072799;28;20100;-64
2021/06/22 03:50:32;;;;;;;1.60;1.50;;;;;;;13.15;48.33;95184.78;5069356;28;20140;-64
2021/06/22 03:52:58;;;;;;;1.60;1.50;;;;;;;13.37;47.64;95189.94;5073971;28;20099;-64
2021/06/22 03:55:26;;;;;;;2.08;1.70;;;;;;;13.36;48.00;95196.31;5070546;28;20105;-64
2021/06/22 03:57:53;;;;;;;1.83;1.73;;;;;;;13.46;47.61;95193.22;5070987;28;20105;-64
2021/06/22 04:00:19;;;;;;;1.70;1.60;;;;;;;13.50;47.74;95199.78;5077170;28;20385;-64
2021/06/22 04:02:45;;;;;;;1.80;1.70;;;;;;;13.55;47.36;95194.63;5073443;28;20121;-63
2021/06/22 04:05:10;;;;;;;3.22;2.20;;;;;;;13.49;47.76;95198.16;5070968;28;20085;-64
2021/06/22 04:07:36;;;;;;;1.80;1.70;;;;;;;13.61;47.04;95199.16;5071233;28;20108;-64
2021/06/22 04:10:01;;;;;;;2.00;1.90;;;;;;;13.29;47.70;95197.13;5075795;28;20104;-63
2021/06/22 04:12:27;;;;;;;2.20;2.00;;;;;;;13.49;48.32;95187.47;5075449;28;20092;-64
2021/06/22 04:14:52;;;;;;;2.00;1.90;;;;;;;13.46;47.38;95183.31;5071946;28;20116;-64
2021/06/22 04:17:18;;;;;;;2.30;2.10;;;;;;;13.56;46.87;95182.91;5077266;28;20077;-64
2021/06/22 04:19:43;;;;;;;3.42;2.20;;;;;;;13.34;47.62;95185.81;5078594;28;20068;-64
2021/06/22 04:22:08;;;;;;;2.10;2.00;;;;;;;13.26;47.62;95194.84;5079036;28;20620;-63
2021/06/22 04:24:34;;;;;;;1.92;1.83;;;;;;;13.44;48.04;95204.91;5073441;28;20072;-63
2021/06/22 04:26:59;;;;;;;2.33;2.22;;;;;;;13.49;47.47;95203.50;5073662;28;20101;-64
2021/06/22 04:29:25;;;;;;;2.00;1.90;;;;;;;13.48;47.46;95210.69;5083336;28;20089;-64
2021/06/22 04:31:50;;;;;;;2.00;1.90;;;;;;;13.54;46.13;95209.03;5080734;28;20142;-64
2021/06/22 04:34:16;;;;;;;2.15;1.95;;;;;;;13.39;47.19;95214.59;5067630;28;20170;-64
2021/06/22 04:36:42;;;;;;;2.13;1.70;;;;;;;13.62;47.53;95206.16;5068242;28;20175;-64
2021/06/22 04:39:07;;;;;;;1.70;1.60;;;;;;;13.76;46.03;95206.13;5073011;28;20096;-64
2021/06/22 04:41:33;;;;;;;1.30;1.30;;;;;;;13.69;46.79;95204.31;5081537;28;20107;-64
2021/06/22 04:43:58;;;;;;;1.42;1.33;;;;;;;13.62;46.00;95214.19;5068201;28;20109;-64
2021/06/22 04:46:24;;;;;;;2.10;1.48;;;;;;;13.66;46.22;95210.06;5070196;28;20112;-64
2021/06/22 04:48:49;;;;;;;1.23;1.17;;;;;;;13.86;46.35;95217.22;5069071;28;20081;-64
2021/06/22 04:51:15;;;;;;;1.33;1.33;;;;;;;13.74;46.36;95209.03;5070707;28;20201;-64
2021/06/22 04:53:40;;;;;;;1.25;1.25;;;;;;;13.82;45.98;95213.34;5067826;28;20190;-64
2021/06/22 04:56:06;;;;;;;1.30;1.20;;;;;;;13.97;45.93;95199.72;5072022;28;20449;-64
2021/06/22 04:58:31;;;;;;;1.27;1.17;;;;;;;14.05;45.70;95204.84;5069483;28;20093;-63
2021/06/22 05:01:01;;;;;;;1.00;1.00;;;;;;;13.99;45.46;95197.69;5079937;28;20080;-63
2021/06/22 05:03:26;;;;;;;0.90;0.90;;;;;;;14.23;46.05;95183.78;5071960;28;20605;-64
2021/06/22 05:05:51;;;;;;;0.65;0.65;;;;;;;14.32;45.03;95190.56;5082974;28;20103;-64
2021/06/22 05:08:17;;;;;;;0.70;0.70;;;;;;;14.37;44.56;95189.91;5070662;28;20085;-64
2021/06/22 05:10:42;;;;;;;0.75;0.75;;;;;;;14.33;44.14;95197.56;5080406;28;20104;-63
2021/06/22 05:13:08;;;;;;;0.70;0.70;;;;;;;14.31;44.58;95202.31;5071734;28;20093;-63
2021/06/22 05:15:33;;;;;;;1.13;0.98;;;;;;;14.21;44.87;95200.91;5077225;28;20101;-63
2021/06/22 05:17:58;;;;;;;0.70;0.70;;;;;;;14.11;45.34;95200.50;5070454;28;20109;-63
2021/06/22 05:20:24;;;;;;;1.33;0.77;;;;;;;14.26;44.94;95208.31;5083387;28;20080;-64
2021/06/22 05:22:49;;;;;;;0.80;0.80;;;;;;;14.12;44.88;95215.56;5073605;28;20158;-64
2021/06/22 05:25:15;;;;;;;0.70;0.70;;;;;;;14.15;44.47;95215.16;5078261;28;20077;-64
2021/06/22 05:27:40;;;;;;;0.60;0.60;;;;;;;14.06;44.71;95219.91;5067468;28;20109;-64
2021/06/22 05:30:06;;;;;;;0.60;0.60;;;;;;;14.07;44.44;95218.03;5066501;28;20162;-63
2021/06/22 05:32:32;;;;;;;0.60;0.60;;;;;;;14.06;46.01;95224.41;5066817;28;20601;-64
2021/06/22 05:34:57;;;;;;;0.80;0.68;;;;;;;14.13;44.21;95229.75;5068021;28;20150;-64
2021/06/22 05:37:24;;;;;;;0.63;0.60;;;;;;;14.07;45.00;95226.88;5067319;28;20080;-64
2021/06/22 05:39:49;;;;;;;0.50;0.50;;;;;;;14.07;44.34;95226.88;5070067;28;20281;-64
2021/06/22 05:42:15;;;;;;;0.60;0.60;;;;;;;14.31;44.13;95237.13;5067491;28;20170;-64
2021/06/22 05:44:41;;;;;;;1.17;0.93;;;;;;;14.12;46.87;95236.97;5070378;28;20087;-64
2021/06/22 05:47:06;;;;;;;0.70;0.70;;;;;;;14.00;46.13;95244.81;5068337;28;20606;-64
2021/06/22 05:49:32;;;;;;;0.95;0.77;;;;;;;13.80;44.78;95250.16;5070167;28;20087;-64
2021/06/22 05:51:57;;;;;;;2.85;2.20;;;;;;;13.94;47.28;95256.38;5068108;28;20549;-65
2021/06/22 05:54:23;;;;;;;3.65;2.65;;;;;;;14.24;46.45;95255.06;5070831;28;20113;-64
2021/06/22 05:56:48;;;;;;;3.22;2.92;;;;;;;14.26;45.43;95259.19;5069231;28;20537;-64
2021/06/22 05:59:13;;;;;;;4.88;2.92;;;;;;;14.53;44.87;95267.13;5069877;28;20108;-64
2021/06/22 06:01:39;;;;;;;2.03;1.92;;;;;;;14.34;44.49;95264.31;5077553;28;20085;-64
2021/06/22 06:04:04;;;;;;;3.53;3.00;;;;;;;14.56;44.02;95261.34;5075997;28;20068;-63
2021/06/22 06:06:30;;;;;;;4.03;2.67;;;;;;;14.63;43.75;95261.31;5069365;28;20567;-64
2021/06/22 06:08:55;;;;;;;3.17;1.83;;;;;;;;;;5069810;28;20670;-64
2021/06/22 06:11:21;;;;;;;4.50;3.70;;;;;;;14.68;43.45;95257.97;5078503;28;20562;-64
2021/06/22 06:13:46;;;;;;;3.70;2.85;;;;;;;14.64;44.13;95276.34;5072974;28;20115;-63
2021/06/22 06:16:11;;;;;;;3.72;3.33;;;;;;;14.75;43.92;95280.25;5071371;28;20076;-64
2021/06/22 06:18:37;;;;;;;4.13;3.60;;;;;;;14.76;43.88;95273.88;5073670;28;20111;-64
2021/06/22 06:21:03;;;;;;;3.95;3.40;;;;;;;14.82;43.22;95285.59;5078028;28;20465;-64
2021/06/22 06:23:36;;;;;;;4.20;3.00;;;;;;;14.92;42.83;95287.81;5053593;28;20097;-64
2021/06/22 06:26:01;;;;;;;3.60;3.10;;;;;;;15.00;42.67;95284.03;5074663;28;20161;-64
2021/06/22 06:28:33;;;;;;;4.68;3.45;;;;;;;15.12;42.94;95278.84;5068801;28;20081;-64
2021/06/22 06:30:58;;;;;;;3.55;3.00;;;;;;;15.08;42.79;95275.75;5071647;28;20622;-64
2021/06/22 06:33:23;;;;;;;4.53;3.38;;;;;;;15.08;42.81;95279.25;5072894;28;20097;-64
2021/06/22 06:35:51;;;;;;;4.40;3.65;;;;;;;15.16;42.64;95285.41;5074563;28;20413;-64
2021/06/22 06:38:17;;;;;;;5.15;3.78;;;;;;;15.27;42.38;95281.22;5079577;28;20609;-64
2021/06/22 06:40:42;;;;;;;4.82;4.13;;;;;;;15.26;42.55;95280.38;5065418;28;20088;-64
2021/06/22 06:43:07;;;;;;;6.18;5.05;;;;;;;15.28;42.04;95283.69;5068032;28;20128;-64
2021/06/22 06:45:33;;;;;;;4.45;3.50;;;;;;;15.31;42.62;95283.25;5067723;28;20084;-64
2021/06/22 06:47:58;;;;;;;5.57;4.28;;;;;;;15.28;42.03;95280.16;5066051;28;20467;-64
2021/06/22 06:50:24;;;;;;;4.75;4.00;;;;;;;15.28;42.45;95288.22;5071589;28;20117;-64
2021/06/22 06:52:49;;;;;;;4.50;3.33;;;;;;;15.42;41.97;95288.94;5074507;28;20085;-64
2021/06/22 06:58:01;;;;;;;3.95;3.33;;;;;;;15.41;41.55;95309.59;5071200;28;20116;-64
2021/06/22 07:00:30;;;;;;;7.73;5.63;;;;;;;15.30;42.07;95310.28;5075971;28;20171;-64
2021/06/22 07:02:56;;;;;;;7.10;5.72;;;;;;;15.19;42.15;95307.25;5068627;28;20363;-63
2021/06/22 07:05:21;;;;;;;8.75;6.30;;;;;;;15.33;41.97;95302.63;5070310;28;20171;-64
2021/06/22 07:07:47;;;;;;;8.10;6.40;;;;;;;15.05;42.15;95294.94;5069618;28;20102;-63
2021/06/22 07:10:13;;;;;;;3.85;3.35;;;;;;;14.60;42.65;95291.19;5066443;28;20109;-64
2021/06/22 07:12:38;;;;;;;6.72;5.30;;;;;;;14.98;42.04;95293.13;5071588;28;20480;-64
2021/06/22 07:15:05;;;;;;;7.88;5.43;;;;;;;15.22;42.10;95285.38;5072467;28;20097;-64
2021/06/22 07:17:30;;;;;;;4.80;3.65;;;;;;;15.48;41.16;95280.88;5073433;28;20199;-63
2021/06/22 07:19:56;;;;;;;3.10;2.80;;;;;;;15.58;40.82;95271.53;5079399;28;20088;-64
2021/06/22 07:22:21;;;;;;;2.60;2.40;;;;;;;15.52;40.91;95275.03;5070713;28;20116;-64
2021/06/22 07:24:47;;;;;;;3.30;2.30;;;;;;;15.49;40.51;95282.50;5068487;28;20072;-63
2021/06/22 07:27:12;;;;;;;3.03;2.60;;;;;;;15.39;41.09;95292.06;5064310;28;20363;-64
2021/06/22 07:29:37;;;;;;;3.78;2.67;;;;;;;15.87;40.46;95285.31;5067930;28;20073;-64
2021/06/22 07:32:03;;;;;;;2.08;1.92;;;;;;;16.28;39.13;95293.00;5064181;28;20093;-64
2021/06/22 07:34:28;;;;;;;3.05;2.72;;;;;;;16.52;39.31;95308.28;5066223;28;20370;-64
2021/06/22 07:36:54;;;;;;;3.70;3.28;;;;;;;16.43;39.02;95319.53;5073284;28;20361;-64
2021/06/22 07:39:19;;;;;;;2.63;2.17;;;;;;;16.52;38.56;95318.19;5068929;28;20100;-64
2021/06/22 07:41:45;;;;;;;4.00;2.78;;;;;;;16.40;39.26;95318.13;5072706;28;20853;-64
2021/06/22 07:44:10;;;;;;;3.47;2.50;;;;;;;16.57;38.92;95320.22;5073107;28;20124;-64
2021/06/22 07:46:36;;;;;;;2.33;2.13;;;;;;;16.67;38.56;95308.94;5068644;28;20108;-65
2021/06/22 07:49:01;;;;;;;1.83;1.73;;;;;;;16.75;38.61;95298.72;5071259;28;20109;-64
2021/06/22 07:51:27;;;;;;;2.33;2.15;;;;;;;16.84;38.16;95315.34;5069902;28;20105;-64
2021/06/22 07:53:52;;;;;;;7.10;3.00;;;;;;;16.96;38.26;95309.22;5074098;28;20112;-64
2021/06/22 07:56:18;;;;;;;3.60;3.15;;;;;;;17.20;37.33;95306.66;5070111;28;20150;-64
2021/06/22 07:58:43;;;;;;;4.43;2.30;;;;;;;17.26;37.06;95311.94;5069248;28;20107;-64
2021/06/22 08:01:09;;;;;;;2.67;1.98;;;;;;;17.26;37.59;95303.03;5079208;28;20084;-64
2021/06/22 08:03:36;;;;;;;8.23;5.28;;;;;;;17.23;37.81;95293.56;5068778;28;20101;-65
2021/06/22 08:06:02;;;;;;;5.60;4.25;;;;;;;17.34;37.46;95291.16;5080054;28;20784;-64
2021/06/22 08:08:27;;;;;;;6.05;4.45;;;;;;;17.43;37.41;95279.00;5075663;28;20330;-65
2021/06/22 08:10:54;;;;;;;4.50;2.97;;;;;;;17.95;36.35;95277.56;5069308;28;20108;-64
2021/06/22 08:13:19;;;;;;;3.47;2.78;;;;;;;18.17;35.86;95279.69;5069548;28;20114;-64
2021/06/22 08:15:45;;;;;;;4.70;2.70;;;;;;;18.56;35.10;95271.91;5072746;28;20106;-64
2021/06/22 08:18:11;;;;;;;3.75;2.75;;;;;;;18.63;35.34;95284.47;5072726;28;20297;-64
2021/06/22 08:20:37;;;;;;;3.15;2.78;;;;;;;19.01;34.12;95291.16;5075229;28;20422;-64
2021/06/22 08:23:03;;;;;;;4.10;2.08;;;;;;;18.65;34.40;95293.97;5077009;28;20169;-64
2021/06/22 08:25:29;;;;;;;3.60;3.28;;;;;;;18.45;34.88;95302.38;5064201;28;20073;-64
2021/06/22 08:27:54;;;;;;;4.55;3.35;;;;;;;18.12;35.60;95306.53;5066103;28;20594;-64
2021/06/22 08:30:21;;;;;;;7.90;3.15;;;;;;;18.46;34.95;95306.72;5072100;28;20104;-64
2021/06/22 08:32:46;;;;;;;2.73;2.50;;;;;;;17.91;35.29;95306.03;5062657;28;20266;-64
2021/06/22 08:35:12;;;;;;;3.13;2.35;;;;;;;18.13;35.39;95300.91;5072806;28;20209;-64
2021/06/22 08:37:37;;;;;;;4.10;2.72;;;;;;;18.16;35.80;95308.50;5069217;28;20568;-64
2021/06/22 08:40:04;;;;;;;1.83;1.55;;;;;;;18.51;34.61;95308.72;5066235;28;20187;-64
2021/06/22 08:42:29;;;;;;;1.63;1.50;;;;;;;18.84;34.31;95315.38;5073011;28;20120;-64
2021/06/22 08:44:55;;;;;;;2.55;1.95;;;;;;;18.69;34.61;95318.56;5052270;28;20085;-64
2021/06/22 08:47:23;;;;;;;3.22;2.35;;;;;;;17.96;35.27;95321.50;5066910;28;20127;-64
2021/06/22 08:49:49;;;;;;;5.03;3.50;;;;;;;18.15;35.63;95320.34;5059092;28;20093;-64
2021/06/22 08:52:15;;;;;;;7.85;4.90;;;;;;;18.43;34.92;95323.38;5065027;28;20093;-64
2021/06/22 08:54:40;;;;;;;5.00;3.92;;;;;;;18.81;34.80;95335.56;5062805;28;20894;-64
2021/06/22 08:57:06;;;;;;;11.38;5.85;;;;;;;18.85;34.90;95327.78;5063417;28;20131;-64
2021/06/22 08:59:31;;;;;;;8.77;6.40;;;;;;;19.13;34.61;95323.47;5068363;28;20170;-64
2021/06/22 09:01:57;;;;;;;2.17;1.95;;;;;;;19.38;33.54;95332.34;5068135;28;20104;-64
2021/06/22 09:04:22;;;;;;;7.78;4.78;;;;;;;19.56;33.20;95340.25;5076395;28;20521;-64
2021/06/22 09:06:48;;;;;;;4.75;3.33;;;;;;;19.83;33.34;95345.03;5061756;28;20509;-64
2021/06/22 09:09:13;;;;;;;2.33;1.50;;;;;;;20.21;32.27;95345.38;5069431;28;20365;-64
2021/06/22 09:11:38;;;;;;;3.72;3.00;;;;;;;20.76;31.71;95346.72;5071935;28;20104;-64
2021/06/22 09:14:05;;;;;;;2.10;1.92;;;;;;;21.06;30.27;95343.56;5067432;28;20124;-64
2021/06/22 09:16:31;;;;;;;6.47;4.72;;;;;;;21.20;30.58;95346.69;5069805;28;20084;-64
2021/06/22 09:19:10;;;;;;;4.78;2.38;;;;;;;21.62;30.00;95334.44;5067115;28;20575;-64
2021/06/22 09:21:43;;;;;;;8.30;4.05;;;;;;;21.41;30.53;95333.41;5067411;28;20171;-64
2021/06/22 09:24:22;;;;;;;3.03;1.63;;;;;;;21.79;29.81;95325.34;5063321;28;20077;-64
2021/06/22 09:26:51;;;;;;;3.55;2.88;;;;;;;21.86;29.10;95336.81;5061901;28;20109;-64
2021/06/22 09:29:17;;;;;;;3.72;2.67;;;;;;;21.87;29.06;95329.50;5066758;28;20076;-64
2021/06/22 09:31:54;;;;;;;6.00;3.80;;;;;;;21.92;30.02;95326.06;5064980;28;20140;-64
2021/06/22 09:34:20;;;;;;;1.75;1.52;;;;;;;22.03;29.57;95341.31;5063973;28;20120;-64
2021/06/22 09:36:53;;;;;;;1.80;1.50;;;;;;;21.76;29.44;95345.66;5065089;28;20166;-64
2021/06/22 09:39:19;;;;;;;2.65;1.80;;;;;;;22.01;29.08;95348.88;5070345;28;20195;-64
2021/06/22 09:41:45;;;;;;;8.00;5.10;;;;;;;21.31;30.17;95350.34;5064841;28;20132;-64
2021/06/22 09:44:14;;;;;;;2.90;2.33;;;;;;;21.28;29.68;95361.69;5067973;28;20566;-65
2021/06/22 09:46:44;;;;;;;3.67;2.13;;;;;;;21.46;30.26;95352.44;5060598;28;20108;-64
2021/06/22 09:49:11;;;;;;;4.22;3.35;;;;;;;21.51;30.68;95341.66;5067504;28;20069;-64
2021/06/22 09:51:45;;;;;;;2.88;1.75;;;;;;;21.46;30.24;95351.59;5066109;28;20191;-64
2021/06/22 09:54:16;;;;;;;1.95;1.75;;;;;;;21.45;30.09;95331.81;5071132;28;20211;-64
2021/06/22 09:57:03;;;;;;;2.53;1.20;;;;;;;21.64;30.01;95336.88;5063528;28;20080;-64
2021/06/22 10:00:04;;;;;;;2.55;2.05;;;;;;;21.70;29.76;95337.75;5065396;28;20104;-64
2021/06/22 10:02:29;;;;;;;1.77;1.67;;;;;;;21.87;29.33;95341.16;5064444;28;20840;-64
2021/06/22 10:04:59;;;;;;;5.78;3.83;;;;;;;21.81;29.41;95344.06;5073007;28;20131;-64
2021/06/22 10:07:25;;;;;;;3.22;2.63;;;;;;;22.01;29.46;95357.00;5066847;28;20100;-64
2021/06/22 10:09:55;;;;;;;6.95;5.15;;;;;;;21.73;29.68;95356.22;5064840;28;20109;-64
2021/06/22 10:12:21;;;;;;;1.75;1.55;;;;;;;21.68;30.17;95359.66;5069930;28;20627;-64
2021/06/22 10:14:48;;;;;;;4.07;2.67;;;;;;;21.59;29.88;95356.59;5056338;28;20124;-64
2021/06/22 10:17:15;;;;;;;7.57;4.80;;;;;;;21.60;30.68;95346.59;5070744;28;20141;-64
2021/06/22 10:19:41;;;;;;;2.55;1.85;;;;;;;21.44;30.77;95348.31;5072319;28;20097;-64
2021/06/22 10:22:07;;;;;;;5.85;4.28;;;;;;;21.10;30.67;95339.28;5069694;28;20113;-64
2021/06/22 10:24:38;;;;;;;5.25;3.53;;;;;;;20.94;31.13;95343.69;5069163;28;20397;-64
2021/06/22 10:27:04;;;;;;;4.93;3.03;;;;;;;20.67;31.51;95346.31;5067876;28;20210;-64
2021/06/22 10:29:31;;;;;;;4.10;2.42;;;;;;;20.36;31.55;95342.06;5069603;28;20087;-64
2021/06/22 10:31:57;;;;;;;6.43;4.50;;;;;;;20.28;31.89;95345.19;5045549;28;20129;-64
2021/06/22 10:34:23;;;;;;;7.53;3.95;;;;;;;20.30;32.04;95348.50;5072962;28;20604;-64
2021/06/22 10:37:10;;;;;;;1.63;1.52;;;;;;;20.14;32.48;95355.53;5068655;28;20081;-76
2021/06/22 10:39:54;;;;;;;2.67;1.95;;;;;;;19.71;33.09;95352.34;5043559;28;20100;-76
2021/06/22 10:42:19;;;;;;;6.15;4.88;;;;;;;19.70;32.83;95353.41;5052305;28;20520;-66
2021/06/22 10:44:49;;;;;;;3.72;1.77;;;;;;;20.06;33.00;95364.84;5074272;28;20092;-70
2021/06/22 10:47:20;;;;;;;4.78;2.40;;;;;;;20.31;31.82;95360.94;5063917;28;20108;-70
2021/06/22 10:50:09;;;;;;;5.75;3.95;;;;;;;20.66;31.34;95360.91;5068372;28;20108;-70
2021/06/22 10:52:58;;;;;;;9.52;5.85;;;;;;;20.63;32.12;95358.69;5071982;28;20146;-71
2021/06/22 10:55:35;;;;;;;8.15;5.22;;;;;;;21.07;31.21;95355.22;5069910;28;20487;-71
2021/06/22 10:58:03;;;;;;;5.00;3.60;;;;;;;21.78;29.96;95348.13;5071991;28;20172;-70
2021/06/22 11:00:49;;;;;;;4.57;2.65;;;;;;;22.03;29.72;95360.31;5068391;28;20077;-70
2021/06/22 11:03:24;;;;;;;4.13;2.25;;;;;;;22.60;28.41;95354.50;5063343;28;20162;-71
2021/06/22 11:06:19;;;;;;;8.25;7.05;;;;;;;22.79;29.50;95361.13;5075908;28;20562;-71
2021/06/22 11:08:44;;;;;;;9.30;7.60;;;;;;;22.65;28.85;95358.06;5070197;28;20575;-71
2021/06/22 11:11:09;;;;;;;10.20;7.63;;;;;;;22.81;28.81;95362.75;5070387;28;20152;-71
2021/06/22 11:13:53;;;;;;;8.07;4.97;;;;;;;22.89;28.24;95367.66;5066083;28;20297;-70
2021/06/22 11:16:18;;;;;;;4.30;2.97;;;;;;;22.89;28.52;95362.22;5069063;28;20118;-70
2021/06/22 11:18:53;;;;;;;2.97;2.67;;;;;;;23.09;28.29;95353.38;5068902;28;20104;-71
2021/06/22 11:21:31;;;;;;;3.75;2.45;;;;;;;23.11;28.46;95351.19;5066338;28;20080;-70
2021/06/22 11:24:01;;;;;;;17.08;14.30;;;;;;;22.99;28.19;95358.75;5079110;28;20128;-70
2021/06/22 11:26:27;;;;;;;6.47;4.82;;;;;;;22.93;28.41;95352.47;5068808;28;20109;-71
2021/06/22 11:28:56;;;;;;;9.43;6.40;;;;;;;23.10;28.36;95351.44;5073976;28;20169;-71
2021/06/22 11:31:32;;;;;;;8.02;5.30;;;;;;;23.08;28.33;95345.50;5069720;28;20343;-71
2021/06/22 11:34:22;;;;;;;12.10;10.23;;;;;;;22.68;28.82;95342.31;5073231;28;20197;-70
2021/06/22 11:36:47;;;;;;;4.15;3.03;;;;;;;22.51;29.26;95338.66;5074007;28;20561;-70